Time;durP1;ratioP1;P1;durP2;ratioP2;P2;SDS_P1;SDS_P2;PMS_P1;PMS_P2;Temp;Humidity;BMP_temperature;BMP_pressure;BME280_temperature;BME280_humidity;BME280_pressure;Samples;Min_cycle;Max_cycle;Signal;HPM_P1;HPM_P2
2023/12/03 00:00:40;;;;;;;13.90;6.57;;;0.90;99.90;;;;;;5065183;28;20217;-80
2023/12/03 00:03:08;;;;;;;14.50;6.80;;;0.90;99.90;;;;;;5048570;28;20028;-80
2023/12/03 00:05:38;;;;;;;13.10;6.55;;;0.90;99.90;;;;;;5031963;28;20034;-80
2023/12/03 00:08:04;;;;;;;16.23;7.25;;;0.90;99.90;;;;;;5064046;28;20028;-80
2023/12/03 00:10:31;;;;;;;14.02;6.95;;;0.80;99.90;;;;;;5064956;28;20263;-80
2023/12/03 00:12:56;;;;;;;13.85;6.75;;;2.60;99.90;;;;;;5063163;28;20020;-79
2023/12/03 00:15:22;;;;;;;14.88;6.80;;;2.00;99.90;;;;;;5066754;28;20369;-80
2023/12/03 00:17:50;;;;;;;13.40;6.68;;;0.90;99.90;;;;;;5070503;28;20048;-80
2023/12/03 00:20:16;;;;;;;13.50;6.57;;;0.80;99.90;;;;;;5051825;28;20032;-80
2023/12/03 00:22:42;;;;;;;14.63;6.88;;;1.40;99.90;;;;;;5051510;28;20023;-80
2023/12/03 00:25:08;;;;;;;15.13;7.57;;;2.30;99.90;;;;;;5072654;28;20273;-80
2023/12/03 00:27:34;;;;;;;14.75;6.63;;;0.80;99.90;;;;;;5034831;28;20083;-79
2023/12/03 00:29:59;;;;;;;12.95;6.63;;;0.70;99.90;;;;;;5069268;28;20174;-79
2023/12/03 00:32:25;;;;;;;15.48;6.57;;;2.80;99.90;;;;;;5066737;28;20039;-80
2023/12/03 00:34:51;;;;;;;13.02;6.43;;;1.80;99.90;;;;;;5051154;28;20173;-79
2023/12/03 00:37:17;;;;;;;13.63;6.50;;;2.50;99.90;;;;;;5051371;28;20307;-79
2023/12/03 00:39:42;;;;;;;13.38;6.25;;;0.70;99.90;;;;;;5049781;28;20352;-79
2023/12/03 00:42:08;;;;;;;13.60;6.47;;;0.70;99.90;;;;;;5055127;28;20057;-80
2023/12/03 00:44:34;;;;;;;14.57;6.78;;;2.60;99.90;;;;;;5051304;28;20016;-79
2023/12/03 00:47:00;;;;;;;12.15;5.72;;;0.60;99.90;;;;;;5034459;28;20272;-79
2023/12/03 00:49:25;;;;;;;13.75;6.15;;;2.50;99.90;;;;;;5066469;28;20119;-80
2023/12/03 00:51:51;;;;;;;13.13;6.00;;;2.20;99.90;;;;;;5051045;28;20022;-80
2023/12/03 00:54:17;;;;;;;12.35;6.15;;;2.10;99.90;;;;;;5050787;28;20212;-80
2023/12/03 00:56:42;;;;;;;12.93;5.93;;;1.90;99.90;;;;;;5051113;28;20008;-79
2023/12/03 00:59:08;;;;;;;13.00;6.10;;;2.70;99.90;;;;;;5068051;28;20265;-79
2023/12/03 01:01:34;;;;;;;13.63;6.50;;;0.50;99.90;;;;;;5082919;28;20073;-80
2023/12/03 01:04:00;;;;;;;13.45;6.65;;;1.30;99.90;;;;;;5051033;28;20036;-80
2023/12/03 01:06:26;;;;;;;13.27;6.10;;;1.80;99.90;;;;;;5051150;28;20039;-79
2023/12/03 01:08:52;;;;;;;13.48;6.30;;;0.50;99.90;;;;;;5067980;28;20016;-80
2023/12/03 01:11:18;;;;;;;12.98;5.97;;;0.50;99.90;;;;;;5066623;28;20378;-80
2023/12/03 01:13:44;;;;;;;11.85;5.72;;;1.50;99.90;;;;;;5084351;28;20024;-80
2023/12/03 01:16:17;;;;;;;12.00;5.30;;;0.40;99.90;;;;;;5045343;28;20106;-80
2023/12/03 01:18:43;;;;;;;;;;;1.90;99.90;;;;;;5051077;28;20096;-80
2023/12/03 01:21:09;;;;;;;12.10;5.55;;;0.40;99.90;;;;;;5060417;28;20140;-80
2023/12/03 01:23:35;;;;;;;12.93;5.82;;;1.30;99.90;;;;;;5063995;28;20042;-80
2023/12/03 01:26:00;;;;;;;11.73;5.55;;;0.40;99.90;;;;;;5031281;28;20020;-79
2023/12/03 01:28:26;;;;;;;11.23;4.88;;;1.40;99.90;;;;;;5064604;28;20017;-80
2023/12/03 01:30:52;;;;;;;10.77;5.00;;;0.40;99.90;;;;;;5080242;28;20246;-80
2023/12/03 01:33:18;;;;;;;13.13;5.93;;;0.40;99.90;;;;;;5063915;28;20031;-80
2023/12/03 01:35:44;;;;;;;11.50;4.93;;;0.40;99.90;;;;;;5045271;28;20051;-80
2023/12/03 01:38:10;;;;;;;11.65;6.00;;;0.40;99.90;;;;;;5047270;28;20119;-80
2023/12/03 01:40:35;;;;;;;10.07;4.97;;;0.30;99.90;;;;;;5029762;28;20031;-80
2023/12/03 01:43:02;;;;;;;10.43;4.95;;;1.50;99.90;;;;;;5030778;28;20448;-80
2023/12/03 01:45:28;;;;;;;10.18;4.65;;;2.20;99.90;;;;;;5063895;28;20021;-79
2023/12/03 01:47:55;;;;;;;10.88;4.70;;;2.10;99.90;;;;;;5047213;28;20031;-80
2023/12/03 01:50:22;;;;;;;11.18;4.47;;;1.70;99.90;;;;;;5046760;28;20189;-80
2023/12/03 01:52:49;;;;;;;10.55;4.80;;;0.20;99.90;;;;;;5047298;28;20021;-80
2023/12/03 01:55:18;;;;;;;11.27;5.38;;;2.00;99.90;;;;;;5063238;28;20174;-80
2023/12/03 01:57:44;;;;;;;11.30;5.10;;;0.20;99.90;;;;;;5046831;28;20023;-80
2023/12/03 02:00:11;;;;;;;10.98;5.18;;;0.40;99.90;;;;;;5047700;28;20061;-79
2023/12/03 02:02:36;;;;;;;10.27;4.90;;;0.20;99.90;;;;;;5065996;28;20078;-80
2023/12/03 02:05:02;;;;;;;10.93;5.32;;;1.40;99.90;;;;;;5032908;28;20020;-79
2023/12/03 02:07:28;;;;;;;10.30;4.70;;;0.20;99.90;;;;;;5050093;28;20052;-80
2023/12/03 02:09:55;;;;;;;10.25;4.68;;;1.60;99.90;;;;;;5066476;28;20032;-80
2023/12/03 02:12:21;;;;;;;9.50;4.20;;;1.20;99.90;;;;;;5050508;28;20074;-79
2023/12/03 02:14:47;;;;;;;10.95;4.80;;;0.90;99.90;;;;;;5083872;28;20024;-79
2023/12/03 02:17:13;;;;;;;9.50;4.32;;;1.70;99.90;;;;;;5082206;28;20044;-79
2023/12/03 02:19:39;;;;;;;10.57;4.60;;;0.20;99.90;;;;;;5066905;28;20048;-80
2023/12/03 02:22:04;;;;;;;9.73;4.15;;;0.10;99.90;;;;;;5066382;28;20214;-80
2023/12/03 02:24:30;;;;;;;9.68;4.55;;;1.00;99.90;;;;;;5049859;28;20020;-79
2023/12/03 02:26:56;;;;;;;9.02;4.30;;;0.10;99.90;;;;;;5049985;28;20066;-79
2023/12/03 02:29:21;;;;;;;9.68;4.53;;;0.70;99.90;;;;;;5048720;28;20035;-80
2023/12/03 02:31:47;;;;;;;9.45;4.07;;;1.20;99.90;;;;;;5048512;28;20019;-80
2023/12/03 02:34:13;;;;;;;9.20;4.20;;;-0.90;99.90;;;;;;5066756;28;20047;-80
2023/12/03 02:36:39;;;;;;;10.10;4.47;;;0.90;99.90;;;;;;5049291;28;20171;-79
2023/12/03 02:39:05;;;;;;;9.40;4.20;;;0.10;99.90;;;;;;5049024;28;20028;-80
2023/12/03 02:41:31;;;;;;;9.50;4.25;;;1.30;99.90;;;;;;5040233;28;20440;-79
2023/12/03 02:43:57;;;;;;;9.15;4.07;;;0.10;99.90;;;;;;5050261;28;20035;-80
2023/12/03 02:46:23;;;;;;;9.40;4.00;;;0.10;99.90;;;;;;5032844;28;20036;-79
2023/12/03 02:48:49;;;;;;;9.38;3.92;;;1.10;99.90;;;;;;5065936;28;20099;-80
2023/12/03 02:51:14;;;;;;;9.60;4.40;;;1.60;99.90;;;;;;5063967;28;20025;-79
2023/12/03 02:53:41;;;;;;;8.52;3.75;;;1.20;99.90;;;;;;5048023;28;20040;-80
2023/12/03 02:56:07;;;;;;;9.85;4.10;;;2.00;99.90;;;;;;5065824;28;20020;-79
2023/12/03 02:58:33;;;;;;;8.95;4.13;;;0.10;99.90;;;;;;5048805;28;20035;-79
2023/12/03 03:00:59;;;;;;;8.52;3.70;;;0.10;99.90;;;;;;5048424;28;20016;-79
2023/12/03 03:03:25;;;;;;;9.27;3.70;;;1.80;99.90;;;;;;5065599;28;20048;-79
2023/12/03 03:05:50;;;;;;;8.60;3.30;;;2.20;99.90;;;;;;5049445;28;20020;-80
2023/12/03 03:08:16;;;;;;;8.45;3.70;;;1.10;99.90;;;;;;5049456;28;20020;-80
2023/12/03 03:10:42;;;;;;;9.48;3.67;;;0.10;99.90;;;;;;5065240;28;20028;-80
2023/12/03 03:13:08;;;;;;;9.05;3.72;;;0.30;99.90;;;;;;5032312;28;20032;-80
2023/12/03 03:15:35;;;;;;;8.35;3.80;;;0.10;99.90;;;;;;5049906;28;20028;-80
2023/12/03 03:18:00;;;;;;;9.60;3.80;;;0.30;99.90;;;;;;5050017;28;20032;-79
2023/12/03 03:20:26;;;;;;;8.88;3.70;;;1.90;99.90;;;;;;5067573;28;20070;-79
2023/12/03 03:22:52;;;;;;;8.20;3.72;;;1.70;99.90;;;;;;5035343;28;20012;-79
2023/12/03 03:25:18;;;;;;;8.88;3.70;;;1.60;99.90;;;;;;5052469;28;20281;-79
2023/12/03 03:27:44;;;;;;;9.95;3.78;;;0.00;99.90;;;;;;5085791;28;20042;-79
2023/12/03 03:30:10;;;;;;;8.32;3.40;;;0.10;99.90;;;;;;5051958;28;20091;-79
2023/12/03 03:32:36;;;;;;;9.15;3.70;;;0.10;99.90;;;;;;5052523;28;20024;-79
2023/12/03 03:35:03;;;;;;;8.18;3.63;;;1.10;99.90;;;;;;5086083;28;20121;-80
2023/12/03 03:37:29;;;;;;;7.78;3.33;;;0.00;99.90;;;;;;5074980;28;20035;-79
2023/12/03 03:39:54;;;;;;;8.85;3.55;;;1.50;99.90;;;;;;5053021;28;20463;-80
2023/12/03 03:42:21;;;;;;;7.30;3.30;;;2.20;99.90;;;;;;5067864;28;20375;-79
2023/12/03 03:44:46;;;;;;;8.10;3.47;;;0.00;99.90;;;;;;5069338;28;20016;-79
2023/12/03 03:47:13;;;;;;;7.75;3.50;;;1.70;99.90;;;;;;5068571;28;20280;-80
2023/12/03 03:49:40;;;;;;;8.95;3.33;;;-0.10;99.90;;;;;;5084792;28;20035;-79
2023/12/03 03:52:05;;;;;;;8.63;3.97;;;-0.10;99.90;;;;;;5085454;28;20039;-80
2023/12/03 03:54:31;;;;;;;7.60;3.58;;;0.60;99.90;;;;;;5052128;28;20178;-80
2023/12/03 03:56:57;;;;;;;8.52;3.70;;;-0.10;99.90;;;;;;5068316;28;20024;-79
2023/12/03 03:59:23;;;;;;;7.50;3.20;;;-0.10;99.90;;;;;;5085421;28;20092;-79
2023/12/03 04:01:50;;;;;;;8.95;3.30;;;-0.20;99.90;;;;;;5067940;28;20321;-79
2023/12/03 04:04:16;;;;;;;7.85;3.50;;;0.80;99.90;;;;;;5068857;28;20179;-79
2023/12/03 04:06:46;;;;;;;8.48;3.65;;;-0.20;99.90;;;;;;5068769;28;20083;-79
2023/12/03 04:09:13;;;;;;;8.25;3.50;;;-0.20;99.90;;;;;;5085290;28;20024;-80
2023/12/03 04:11:45;;;;;;;8.18;3.50;;;-0.20;99.90;;;;;;5067110;28;20117;-79
2023/12/03 04:14:13;;;;;;;8.75;4.00;;;1.30;99.90;;;;;;5067951;28;20051;-79
2023/12/03 04:16:39;;;;;;;8.00;3.40;;;-0.30;99.90;;;;;;5068213;28;20316;-79
2023/12/03 04:19:06;;;;;;;9.07;4.18;;;-0.30;99.90;;;;;;5068514;28;20040;-79
2023/12/03 04:21:33;;;;;;;8.90;3.80;;;-0.40;99.90;;;;;;5067762;28;20047;-79
2023/12/03 04:23:58;;;;;;;8.65;3.80;;;-0.40;99.90;;;;;;5054935;28;20028;-79
2023/12/03 04:26:25;;;;;;;8.27;3.65;;;-0.50;99.90;;;;;;5051775;28;20074;-80
2023/12/03 04:28:52;;;;;;;8.95;3.92;;;-0.60;99.90;;;;;;5054640;28;20020;-79
2023/12/03 04:31:23;;;;;;;8.05;3.65;;;0.80;99.90;;;;;;5067671;28;20043;-79
2023/12/03 04:33:50;;;;;;;8.68;3.60;;;-0.60;99.90;;;;;;5051547;28;20069;-79
2023/12/03 04:36:16;;;;;;;8.32;4.05;;;0.60;99.90;;;;;;5051142;28;20137;-79
2023/12/03 04:38:42;;;;;;;9.85;4.20;;;-0.60;99.90;;;;;;5067977;28;20008;-79
2023/12/03 04:41:08;;;;;;;10.00;4.22;;;1.20;99.90;;;;;;5067739;28;20253;-79
2023/12/03 04:43:33;;;;;;;13.13;4.78;;;1.60;99.90;;;;;;5055437;28;20036;-79
2023/12/03 04:46:07;;;;;;;17.08;4.30;;;0.90;99.90;;;;;;5067749;28;20296;-79
2023/12/03 04:48:34;;;;;;;9.50;4.65;;;-0.40;99.90;;;;;;5067575;28;20068;-79
2023/12/03 04:51:00;;;;;;;9.40;4.85;;;-0.70;99.90;;;;;;5067850;28;20028;-79
2023/12/03 04:53:26;;;;;;;31.50;6.85;;;-0.40;99.90;;;;;;5083424;28;20044;-79
2023/12/03 04:55:52;;;;;;;17.30;6.55;;;;;;;;;;5050837;28;20406;-79
2023/12/03 04:58:18;;;;;;;14.77;6.63;;;-0.30;99.90;;;;;;5067875;28;20028;-79
2023/12/03 05:00:44;;;;;;;13.40;7.13;;;1.20;99.90;;;;;;5051232;28;20020;-80
2023/12/03 05:03:09;;;;;;;16.10;7.85;;;0.90;99.90;;;;;;5049616;28;20047;-79
2023/12/03 05:05:35;;;;;;;21.80;8.88;;;1.20;99.90;;;;;;5033813;28;20025;-79
2023/12/03 05:08:01;;;;;;;18.33;8.98;;;-0.30;99.90;;;;;;5067805;28;20028;-79
2023/12/03 05:10:29;;;;;;;19.58;9.77;;;0.90;99.90;;;;;;5034641;28;20012;-79
2023/12/03 05:12:55;;;;;;;19.02;10.82;;;-0.30;99.90;;;;;;5067040;28;20323;-79
2023/12/03 05:15:21;;;;;;;24.75;10.80;;;1.80;99.90;;;;;;5067587;28;20020;-79
2023/12/03 05:17:47;;;;;;;21.45;11.70;;;1.20;99.90;;;;;;5067759;28;20077;-79
2023/12/03 05:20:12;;;;;;;37.30;14.27;;;-0.30;99.90;;;;;;5055289;28;20031;-79
2023/12/03 05:22:38;;;;;;;26.05;12.63;;;-0.30;99.90;;;;;;5049296;28;20020;-79
2023/12/03 05:25:05;;;;;;;42.95;13.80;;;-0.20;99.90;;;;;;5073046;28;20091;-79
2023/12/03 05:27:30;;;;;;;20.58;11.88;;;-0.20;99.90;;;;;;5067983;28;20211;-79
2023/12/03 05:29:56;;;;;;;24.00;13.00;;;1.00;99.90;;;;;;5034809;28;20042;-79
2023/12/03 05:32:22;;;;;;;38.67;13.55;;;2.10;99.90;;;;;;5066733;28;20172;-79
2023/12/03 05:34:48;;;;;;;24.70;12.27;;;-0.10;99.90;;;;;;5067870;28;20250;-79
2023/12/03 05:37:13;;;;;;;31.02;13.32;;;1.20;99.90;;;;;;5089325;28;20043;-79
2023/12/03 05:39:40;;;;;;;26.52;13.20;;;0.80;99.90;;;;;;5070603;28;20329;-79
2023/12/03 05:42:06;;;;;;;23.67;13.23;;;1.70;99.90;;;;;;5054893;28;20024;-80
2023/12/03 05:44:32;;;;;;;30.85;13.98;;;1.10;99.90;;;;;;5088459;28;20034;-79
2023/12/03 05:46:58;;;;;;;30.17;14.20;;;1.70;99.90;;;;;;5071404;28;20384;-79
2023/12/03 05:49:24;;;;;;;39.50;14.77;;;0.20;99.90;;;;;;5053189;28;20031;-79
2023/12/03 05:51:50;;;;;;;84.68;19.15;;;0.20;99.90;;;;;;5053094;28;20028;-79
2023/12/03 05:54:16;;;;;;;33.33;14.45;;;2.20;99.90;;;;;;5067494;28;20081;-79
2023/12/03 05:56:43;;;;;;;24.23;12.80;;;1.80;99.90;;;;;;5072450;28;20057;-79
2023/12/03 05:59:09;;;;;;;29.65;12.98;;;1.80;99.90;;;;;;5069926;28;20034;-79
2023/12/03 06:01:35;;;;;;;23.15;12.20;;;1.20;99.90;;;;;;5069102;28;20023;-79
2023/12/03 06:04:06;;;;;;;28.02;12.13;;;1.50;99.90;;;;;;5088443;28;20052;-79
2023/12/03 06:06:35;;;;;;;25.27;10.57;;;1.20;99.90;;;;;;5070067;28;20028;-79
2023/12/03 06:09:03;;;;;;;30.38;11.70;;;0.40;99.90;;;;;;5064820;28;20028;-79
2023/12/03 06:11:29;;;;;;;20.33;10.18;;;2.30;99.90;;;;;;5054849;28;20024;-79
2023/12/03 06:13:58;;;;;;;18.40;9.80;;;0.50;99.90;;;;;;5071467;28;20062;-80
2023/12/03 06:16:23;;;;;;;20.67;10.10;;;0.50;99.90;;;;;;5053775;28;20040;-79
2023/12/03 06:18:50;;;;;;;27.05;10.00;;;0.60;99.90;;;;;;5051678;28;20090;-79
2023/12/03 06:21:15;;;;;;;20.05;9.52;;;0.50;99.90;;;;;;5070392;28;20269;-80
2023/12/03 06:23:41;;;;;;;24.70;9.93;;;0.60;99.90;;;;;;5054057;28;20019;-79
2023/12/03 06:26:08;;;;;;;28.23;10.93;;;1.80;99.90;;;;;;5053679;28;20185;-80
2023/12/03 06:28:33;;;;;;;19.52;9.45;;;0.60;99.90;;;;;;5069488;28;20024;-80
2023/12/03 06:30:59;;;;;;;26.77;9.98;;;1.50;99.90;;;;;;5070168;28;20030;-80
2023/12/03 06:33:25;;;;;;;20.50;9.35;;;1.60;99.90;;;;;;5070431;28;20079;-80
2023/12/03 06:35:53;;;;;;;23.90;8.80;;;1.70;99.90;;;;;;5053590;28;20016;-80
2023/12/03 06:38:18;;;;;;;21.95;9.43;;;2.20;99.90;;;;;;5053987;28;20020;-80
2023/12/03 06:40:45;;;;;;;24.88;9.88;;;1.20;99.90;;;;;;5036576;28;20024;-80
2023/12/03 06:43:11;;;;;;;23.85;9.70;;;0.80;99.90;;;;;;5070264;28;20028;-80
2023/12/03 06:45:37;;;;;;;28.10;10.77;;;1.60;99.90;;;;;;5070034;28;20091;-80
2023/12/03 06:48:03;;;;;;;19.80;8.82;;;2.40;99.90;;;;;;5051948;28;20027;-80
2023/12/03 06:50:29;;;;;;;45.90;10.85;;;0.90;99.90;;;;;;5034027;28;20074;-80
2023/12/03 06:52:55;;;;;;;65.75;14.20;;;0.90;99.90;;;;;;5067513;28;20028;-80
2023/12/03 06:55:21;;;;;;;53.80;12.45;;;2.00;99.90;;;;;;5036503;28;20022;-80
2023/12/03 06:57:46;;;;;;;28.63;10.80;;;1.50;99.90;;;;;;5072592;28;20020;-80
2023/12/03 07:00:13;;;;;;;47.33;12.95;;;0.90;99.90;;;;;;5064617;28;20031;-80
2023/12/03 07:02:38;;;;;;;32.92;10.60;;;1.00;99.90;;;;;;5084766;28;20069;-80
2023/12/03 07:05:04;;;;;;;25.75;10.00;;;1.00;99.90;;;;;;5052114;28;20020;-80
2023/12/03 07:07:30;;;;;;;24.95;10.20;;;1.00;99.90;;;;;;5085802;28;20024;-80
2023/12/03 07:09:56;;;;;;;17.83;8.52;;;2.00;99.90;;;;;;5035639;28;20031;-80
2023/12/03 07:12:22;;;;;;;33.42;11.55;;;2.40;99.90;;;;;;5050094;28;20027;-80
2023/12/03 07:14:48;;;;;;;26.75;8.90;;;2.00;99.90;;;;;;5052279;28;20047;-80
2023/12/03 07:17:13;;;;;;;22.70;10.23;;;2.00;99.90;;;;;;5065074;28;20080;-80
2023/12/03 07:19:43;;;;;;;34.83;11.25;;;1.10;99.90;;;;;;5082097;28;20024;-80
2023/12/03 07:22:09;;;;;;;21.23;9.70;;;1.10;99.90;;;;;;5058481;28;20025;-80
2023/12/03 07:24:35;;;;;;;24.27;10.32;;;2.50;99.90;;;;;;5032553;28;20056;-79
2023/12/03 07:27:01;;;;;;;21.17;10.38;;;1.10;99.90;;;;;;5055824;28;20170;-80
2023/12/03 07:29:27;;;;;;;23.77;9.90;;;1.10;99.90;;;;;;5065654;28;20086;-80
2023/12/03 07:31:53;;;;;;;43.72;11.20;;;1.20;99.90;;;;;;5064634;28;20032;-80
2023/12/03 07:34:19;;;;;;;22.42;10.45;;;1.10;99.90;;;;;;5048782;28;20024;-80
2023/12/03 07:36:44;;;;;;;21.98;9.90;;;2.50;99.90;;;;;;5065117;28;20023;-80
2023/12/03 07:39:10;;;;;;;21.48;10.20;;;1.90;99.90;;;;;;5063719;28;20043;-81
2023/12/03 07:41:36;;;;;;;23.30;9.77;;;1.20;99.90;;;;;;5045040;28;20048;-81
2023/12/03 07:44:02;;;;;;;24.17;10.07;;;1.20;99.90;;;;;;5062510;28;20099;-81
2023/12/03 07:46:28;;;;;;;24.35;10.35;;;1.20;99.90;;;;;;5042471;28;20044;-81
2023/12/03 07:48:53;;;;;;;19.23;8.90;;;1.90;99.90;;;;;;5056819;28;20099;-81
2023/12/03 07:51:19;;;;;;;24.70;9.93;;;1.90;99.90;;;;;;5045493;28;20067;-81
2023/12/03 07:53:45;;;;;;;20.80;9.65;;;1.20;99.90;;;;;;5073113;28;20271;-81
2023/12/03 07:56:10;;;;;;;30.13;11.07;;;2.70;99.90;;;;;;5062484;28;20087;-81
2023/12/03 07:58:36;;;;;;;20.70;9.82;;;1.20;99.90;;;;;;5030770;28;20017;-81
2023/12/03 08:01:03;;;;;;;29.35;10.57;;;2.60;99.90;;;;;;5044718;28;20028;-81
2023/12/03 08:03:29;;;;;;;20.27;9.23;;;1.20;99.90;;;;;;5046396;28;20028;-81
2023/12/03 08:05:55;;;;;;;23.90;10.15;;;2.90;99.90;;;;;;5044922;28;20024;-81
2023/12/03 08:08:21;;;;;;;27.73;10.95;;;1.20;99.90;;;;;;5062465;28;20095;-82
2023/12/03 08:10:46;;;;;;;22.92;9.98;;;1.70;99.90;;;;;;5045656;28;20437;-81
2023/12/03 08:13:12;;;;;;;21.40;9.60;;;2.00;99.90;;;;;;5046334;28;20074;-81
2023/12/03 08:15:38;;;;;;;24.73;10.07;;;1.30;99.90;;;;;;5061945;28;20020;-81
2023/12/03 08:18:04;;;;;;;22.88;10.15;;;3.00;99.90;;;;;;5081391;28;20029;-81
2023/12/03 08:20:30;;;;;;;25.73;10.70;;;1.30;99.90;;;;;;5064736;28;20031;-81
2023/12/03 08:22:55;;;;;;;23.92;10.02;;;1.30;99.90;;;;;;5044282;28;20024;-81
2023/12/03 08:25:21;;;;;;;29.85;11.35;;;2.00;99.90;;;;;;5048227;28;20258;-81
2023/12/03 08:27:47;;;;;;;27.58;10.38;;;2.30;99.90;;;;;;5064238;28;20375;-81
2023/12/03 08:30:13;;;;;;;24.48;10.25;;;1.40;99.90;;;;;;5065669;28;20034;-81
2023/12/03 08:32:39;;;;;;;22.63;9.98;;;1.40;99.90;;;;;;5115133;28;20012;-81
2023/12/03 08:35:05;;;;;;;23.85;9.75;;;1.40;99.90;;;;;;5047476;28;20047;-81
2023/12/03 08:37:31;;;;;;;22.75;10.05;;;1.50;99.90;;;;;;5045712;28;20130;-81
2023/12/03 08:40:00;;;;;;;23.88;10.30;;;2.80;99.90;;;;;;5065076;28;20016;-81
2023/12/03 08:42:26;;;;;;;25.92;11.23;;;1.90;99.90;;;;;;5080292;28;20028;-81
2023/12/03 08:44:51;;;;;;;21.30;9.40;;;1.40;99.90;;;;;;5064187;28;20090;-81
2023/12/03 08:47:17;;;;;;;20.63;9.40;;;3.10;99.90;;;;;;5062874;28;20088;-81
2023/12/03 08:49:43;;;;;;;22.23;8.95;;;1.50;99.90;;;;;;5047793;28;20266;-81
2023/12/03 08:52:09;;;;;;;18.27;8.50;;;1.50;99.90;;;;;;5048625;28;20028;-81
2023/12/03 08:54:35;;;;;;;21.25;8.50;;;1.60;99.90;;;;;;5080624;28;20019;-81
2023/12/03 08:57:01;;;;;;;18.17;8.32;;;2.50;99.90;;;;;;5064948;28;20027;-81
2023/12/03 08:59:27;;;;;;;18.77;8.75;;;1.50;99.90;;;;;;5064439;28;20062;-81
2023/12/03 09:01:52;;;;;;;21.60;8.98;;;1.60;99.90;;;;;;5064714;28;20027;-81
2023/12/03 09:04:18;;;;;;;21.70;9.38;;;1.60;99.90;;;;;;5063845;28;20044;-80
2023/12/03 09:06:46;;;;;;;19.38;9.13;;;1.60;99.90;;;;;;5031627;28;20662;-81
2023/12/03 09:09:12;;;;;;;21.20;9.88;;;1.70;99.90;;;;;;5046083;28;20033;-81
2023/12/03 09:11:42;;;;;;;22.58;10.00;;;1.70;99.90;;;;;;5084521;28;20048;-81
2023/12/03 09:14:08;;;;;;;21.55;9.65;;;1.70;99.90;;;;;;5082394;28;20024;-80
2023/12/03 09:16:33;;;;;;;21.35;9.07;;;2.40;99.90;;;;;;5085017;28;20100;-81
2023/12/03 09:18:59;;;;;;;20.92;9.63;;;1.70;99.90;;;;;;5063922;28;20434;-81
2023/12/03 09:21:25;;;;;;;22.90;10.02;;;2.90;99.90;;;;;;5048242;28;20019;-81
2023/12/03 09:23:51;;;;;;;20.48;8.88;;;2.80;99.90;;;;;;5083414;28;20265;-81
2023/12/03 09:26:17;;;;;;;22.38;10.70;;;1.80;99.90;;;;;;5052571;28;20427;-82
2023/12/03 09:28:42;;;;;;;21.30;9.20;;;1.80;99.90;;;;;;5084043;28;20024;-82
2023/12/03 09:31:08;;;;;;;23.88;10.05;;;1.80;99.90;;;;;;5067483;28;20034;-81
2023/12/03 09:33:34;;;;;;;21.35;9.73;;;2.00;99.90;;;;;;5051725;28;20026;-81
2023/12/03 09:35:59;;;;;;;21.05;9.73;;;3.00;99.90;;;;;;5084663;28;20327;-81
2023/12/03 09:38:25;;;;;;;24.73;9.93;;;2.90;99.90;;;;;;5034498;28;20016;-81
2023/12/03 09:40:55;;;;;;;21.75;10.00;;;1.90;99.90;;;;;;5056055;28;20182;-81
2023/12/03 09:43:21;;;;;;;21.75;10.40;;;1.90;99.90;;;;;;5083662;28;20020;-81
2023/12/03 09:45:47;;;;;;;23.45;10.52;;;1.90;99.90;;;;;;5067435;28;20200;-81
2023/12/03 09:48:14;;;;;;;22.60;10.10;;;1.90;99.90;;;;;;5067283;28;20087;-82
2023/12/03 09:50:44;;;;;;;22.70;10.15;;;0.70;99.90;;;;;;5051426;28;20043;-82
2023/12/03 09:53:11;;;;;;;21.83;10.48;;;2.00;99.90;;;;;;5064148;28;20027;-82
2023/12/03 09:55:43;;;;;;;22.20;10.90;;;2.00;99.90;;;;;;5067239;28;20036;-81
2023/12/03 09:58:10;;;;;;;23.08;10.23;;;3.80;99.90;;;;;;5083831;28;20016;-81
2023/12/03 10:00:39;;;;;;;21.05;10.07;;;2.10;99.90;;;;;;5049111;28;20028;-81
2023/12/03 10:03:06;;;;;;;23.92;10.75;;;2.10;99.90;;;;;;5064545;28;20038;-81
2023/12/03 10:05:32;;;;;;;22.13;10.88;;;2.10;99.90;;;;;;5051081;28;20020;-81
2023/12/03 10:07:58;;;;;;;21.45;10.38;;;2.20;99.90;;;;;;5067520;28;20028;-81
2023/12/03 10:10:30;;;;;;;22.17;10.88;;;3.00;99.90;;;;;;5083941;28;20020;-81
2023/12/03 10:12:56;;;;;;;20.95;10.93;;;2.40;99.90;;;;;;5082759;28;20039;-81
2023/12/03 10:15:22;;;;;;;23.85;11.38;;;2.30;99.90;;;;;;5047633;28;20087;-81
2023/12/03 10:17:50;;;;;;;23.67;11.57;;;4.20;99.90;;;;;;5083630;28;21523;-81
2023/12/03 10:20:24;;;;;;;25.15;12.10;;;4.50;99.90;;;;;;5064962;28;21352;-81
2023/12/03 10:22:50;;;;;;;24.67;11.60;;;2.40;99.90;;;;;;5085251;28;20016;-82
2023/12/03 10:25:36;;;;;;;21.90;11.70;;;4.00;99.90;;;;;;5048574;28;20024;-81
2023/12/03 10:28:04;;;;;;;21.60;11.65;;;2.40;99.90;;;;;;5082611;28;20055;-82
2023/12/03 10:30:30;;;;;;;22.15;10.82;;;2.40;99.90;;;;;;5068361;28;20095;-82
2023/12/03 10:32:56;;;;;;;23.73;12.18;;;2.40;99.90;;;;;;5066805;28;20024;-81
2023/12/03 10:35:23;;;;;;;23.48;12.13;;;4.10;99.90;;;;;;5068783;28;20086;-82
2023/12/03 10:37:49;;;;;;;22.45;11.88;;;2.50;99.90;;;;;;5070160;28;20553;-81
2023/12/03 10:40:16;;;;;;;21.88;11.32;;;2.60;99.90;;;;;;5066574;28;20020;-81
2023/12/03 10:42:43;;;;;;;21.77;12.07;;;2.60;99.90;;;;;;5050848;28;20023;-82
2023/12/03 10:45:10;;;;;;;22.42;12.35;;;2.50;99.90;;;;;;5065654;28;20044;-82
2023/12/03 10:47:37;;;;;;;24.55;13.30;;;2.60;99.90;;;;;;5065337;28;20023;-81
2023/12/03 10:50:05;;;;;;;20.90;11.18;;;3.00;99.90;;;;;;5082444;28;20028;-81
2023/12/03 10:52:36;;;;;;;23.00;12.70;;;2.50;99.90;;;;;;5048400;28;20092;-82
2023/12/03 10:55:09;;;;;;;22.85;12.65;;;2.60;99.90;;;;;;5066238;28;20040;-81
2023/12/03 10:57:56;;;;;;;22.52;11.88;;;2.60;99.90;;;;;;5083302;28;20276;-81
2023/12/03 11:00:29;;;;;;;23.83;12.95;;;3.90;99.90;;;;;;5050921;28;20035;-81
2023/12/03 11:03:14;;;;;;;22.55;12.32;;;2.60;99.90;;;;;;5067151;28;20196;-81
2023/12/03 11:05:53;;;;;;;24.77;13.13;;;2.80;99.90;;;;;;5066290;28;20035;-81
2023/12/03 11:08:24;;;;;;;22.55;12.30;;;2.70;99.90;;;;;;5066170;28;20031;-81
2023/12/03 11:10:54;;;;;;;23.92;12.75;;;2.90;99.90;;;;;;5081368;28;20026;-80
2023/12/03 11:13:21;;;;;;;22.73;12.63;;;2.90;99.90;;;;;;5081762;28;20097;-81
2023/12/03 11:15:48;;;;;;;22.48;12.93;;;2.90;99.90;;;;;;5046401;28;20016;-81
2023/12/03 11:18:15;;;;;;;22.55;12.02;;;3.30;99.90;;;;;;5064270;28;20032;-81
2023/12/03 11:20:43;;;;;;;24.20;12.75;;;2.80;99.90;;;;;;5048792;28;20040;-81
2023/12/03 11:23:43;;;;;;;22.83;12.65;;;2.80;99.90;;;;;;5063507;28;20660;-81
2023/12/03 11:26:15;;;;;;;24.77;13.35;;;2.90;99.90;;;;;;5081994;28;20089;-81
2023/12/03 11:28:57;;;;;;;21.20;12.70;;;2.90;99.90;;;;;;5063967;28;20024;-81
2023/12/03 11:31:24;;;;;;;22.42;12.90;;;2.90;99.90;;;;;;5053507;28;20020;-81
2023/12/03 11:33:54;;;;;;;23.52;12.98;;;2.90;99.90;;;;;;5080985;28;20032;-81
2023/12/03 11:36:20;;;;;;;21.20;11.95;;;3.10;99.90;;;;;;5066164;28;20016;-80
2023/12/03 11:38:47;;;;;;;24.42;13.85;;;4.30;99.90;;;;;;5067451;28;20095;-81
2023/12/03 11:41:13;;;;;;;22.17;12.68;;;3.10;99.90;;;;;;5079727;28;20292;-81
2023/12/03 11:43:39;;;;;;;23.17;13.43;;;3.10;99.90;;;;;;5066161;28;20016;-81
2023/12/03 11:46:04;;;;;;;22.83;12.52;;;3.10;99.90;;;;;;5096936;28;20019;-81
2023/12/03 11:48:31;;;;;;;22.15;13.57;;;3.70;99.90;;;;;;5066311;28;20189;-81
2023/12/03 11:50:57;;;;;;;27.15;14.52;;;3.20;99.90;;;;;;5026587;28;20278;-81
2023/12/03 11:53:48;;;;;;;23.35;13.80;;;3.30;99.90;;;;;;5048529;28;20031;-81
2023/12/03 11:56:16;;;;;;;22.10;13.32;;;3.20;99.90;;;;;;5066269;28;20024;-81
2023/12/03 11:58:42;;;;;;;21.55;12.55;;;3.20;99.90;;;;;;5048909;28;20030;-81
2023/12/03 12:01:08;;;;;;;22.35;13.70;;;5.10;99.90;;;;;;5062239;28;20016;-82
2023/12/03 12:03:34;;;;;;;22.88;13.75;;;3.20;99.90;;;;;;5065741;28;20024;-81
2023/12/03 12:06:00;;;;;;;21.10;13.20;;;3.20;99.90;;;;;;5051284;28;20024;-81
2023/12/03 12:08:26;;;;;;;21.95;13.07;;;3.50;99.90;;;;;;5055197;28;20059;-82
2023/12/03 12:10:52;;;;;;;22.50;14.00;;;3.10;99.90;;;;;;5048678;28;20347;-82
2023/12/03 12:13:19;;;;;;;22.60;12.43;;;3.00;99.90;;;;;;5064688;28;20262;-82
2023/12/03 12:15:45;;;;;;;20.15;12.52;;;3.00;99.90;;;;;;5080863;28;20095;-81
2023/12/03 12:18:11;;;;;;;19.83;12.07;;;4.80;99.90;;;;;;5065000;28;20133;-81
2023/12/03 12:20:37;;;;;;;20.35;12.25;;;2.90;99.90;;;;;;5065850;28;20044;-81
2023/12/03 12:23:03;;;;;;;19.65;11.77;;;3.10;99.90;;;;;;5048976;28;20020;-81
2023/12/03 12:25:30;;;;;;;19.83;11.45;;;2.70;99.90;;;;;;5079225;28;20016;-81
2023/12/03 12:27:56;;;;;;;20.13;12.15;;;4.00;99.90;;;;;;5062192;28;20236;-81
2023/12/03 12:30:28;;;;;;;20.67;12.43;;;2.80;99.90;;;;;;5064037;28;20043;-81
2023/12/03 12:32:55;;;;;;;20.10;11.70;;;2.80;99.90;;;;;;5081175;28;20303;-81
2023/12/03 12:35:22;;;;;;;19.95;11.48;;;3.10;99.90;;;;;;5048391;28;20020;-81
2023/12/03 12:38:02;;;;;;;20.17;12.07;;;2.80;99.90;;;;;;5081383;28;20320;-81
2023/12/03 12:40:30;;;;;;;19.17;10.02;;;2.80;99.90;;;;;;5080117;28;20016;-81